sensor_id;sensor_type;location;lat;lon;timestamp;P1;durP1;ratioP1;P2;durP2;ratioP2
51764;SDS011;37835;53.256;6.456;2022-08-18T00:01:16;16.77;;;5.47;;
51764;SDS011;37835;53.256;6.456;2022-08-18T00:03:43;16.88;;;6.70;;
51764;SDS011;37835;53.256;6.456;2022-08-18T00:06:10;19.98;;;5.97;;
51764;SDS011;37835;53.256;6.456;2022-08-18T00:08:35;13.77;;;5.78;;
51764;SDS011;37835;53.256;6.456;2022-08-18T00:11:01;16.50;;;6.10;;
51764;SDS011;37835;53.256;6.456;2022-08-18T00:13:27;16.77;;;5.97;;
51764;SDS011;37835;53.256;6.456;2022-08-18T00:15:53;21.38;;;5.60;;
51764;SDS011;37835;53.256;6.456;2022-08-18T00:18:18;17.95;;;5.63;;
51764;SDS011;37835;53.256;6.456;2022-08-18T00:20:44;11.82;;;5.30;;
51764;SDS011;37835;53.256;6.456;2022-08-18T00:23:10;13.38;;;5.78;;
51764;SDS011;37835;53.256;6.456;2022-08-18T00:25:36;15.38;;;5.85;;
51764;SDS011;37835;53.256;6.456;2022-08-18T00:28:01;15.45;;;5.80;;
51764;SDS011;37835;53.256;6.456;2022-08-18T00:30:28;17.70;;;5.95;;
51764;SDS011;37835;53.256;6.456;2022-08-18T00:32:55;15.90;;;5.93;;
51764;SDS011;37835;53.256;6.456;2022-08-18T00:37:56;17.67;;;6.10;;
51764;SDS011;37835;53.256;6.456;2022-08-18T00:40:24;20.77;;;5.60;;
51764;SDS011;37835;53.256;6.456;2022-08-18T00:42:54;21.02;;;6.60;;
51764;SDS011;37835;53.256;6.456;2022-08-18T00:45:30;21.58;;;6.35;;
51764;SDS011;37835;53.256;6.456;2022-08-18T00:47:58;23.23;;;6.35;;
51764;SDS011;37835;53.256;6.456;2022-08-18T00:50:31;16.67;;;5.53;;
51764;SDS011;37835;53.256;6.456;2022-08-18T00:55:39;13.85;;;6.10;;
51764;SDS011;37835;53.256;6.456;2022-08-18T00:58:12;19.35;;;6.10;;
51764;SDS011;37835;53.256;6.456;2022-08-18T01:00:43;16.00;;;6.28;;
51764;SDS011;37835;53.256;6.456;2022-08-18T01:03:11;12.80;;;6.03;;
51764;SDS011;37835;53.256;6.456;2022-08-18T01:05:41;15.50;;;6.18;;
51764;SDS011;37835;53.256;6.456;2022-08-18T01:08:12;17.88;;;6.68;;
51764;SDS011;37835;53.256;6.456;2022-08-18T01:10:40;16.65;;;5.97;;
51764;SDS011;37835;53.256;6.456;2022-08-18T01:13:06;17.33;;;5.88;;
51764;SDS011;37835;53.256;6.456;2022-08-18T01:15:32;19.02;;;6.65;;
51764;SDS011;37835;53.256;6.456;2022-08-18T01:18:00;19.17;;;6.72;;
51764;SDS011;37835;53.256;6.456;2022-08-18T01:21:11;21.88;;;6.40;;
51764;SDS011;37835;53.256;6.456;2022-08-18T01:24:01;17.25;;;6.90;;
51764;SDS011;37835;53.256;6.456;2022-08-18T01:26:29;15.48;;;5.93;;
51764;SDS011;37835;53.256;6.456;2022-08-18T01:29:02;14.50;;;6.10;;
51764;SDS011;37835;53.256;6.456;2022-08-18T01:34:02;16.80;;;6.38;;
51764;SDS011;37835;53.256;6.456;2022-08-18T01:36:30;15.32;;;6.50;;
51764;SDS011;37835;53.256;6.456;2022-08-18T01:39:02;15.70;;;6.35;;
51764;SDS011;37835;53.256;6.456;2022-08-18T01:41:29;20.75;;;6.25;;
51764;SDS011;37835;53.256;6.456;2022-08-18T01:43:55;17.98;;;6.68;;
51764;SDS011;37835;53.256;6.456;2022-08-18T01:46:22;20.88;;;7.10;;
51764;SDS011;37835;53.256;6.456;2022-08-18T01:48:48;18.55;;;6.50;;
51764;SDS011;37835;53.256;6.456;2022-08-18T01:51:15;15.52;;;6.97;;
51764;SDS011;37835;53.256;6.456;2022-08-18T01:53:43;20.83;;;7.20;;
51764;SDS011;37835;53.256;6.456;2022-08-18T01:56:10;14.10;;;7.22;;
51764;SDS011;37835;53.256;6.456;2022-08-18T01:58:37;18.05;;;6.90;;
51764;SDS011;37835;53.256;6.456;2022-08-18T02:01:03;26.85;;;7.30;;
51764;SDS011;37835;53.256;6.456;2022-08-18T02:03:30;21.88;;;7.50;;
51764;SDS011;37835;53.256;6.456;2022-08-18T02:06:01;27.35;;;7.28;;
51764;SDS011;37835;53.256;6.456;2022-08-18T02:08:29;18.90;;;7.65;;
51764;SDS011;37835;53.256;6.456;2022-08-18T02:10:55;23.13;;;7.55;;
51764;SDS011;37835;53.256;6.456;2022-08-18T02:13:25;18.60;;;7.60;;
51764;SDS011;37835;53.256;6.456;2022-08-18T02:15:51;18.65;;;6.82;;
51764;SDS011;37835;53.256;6.456;2022-08-18T02:18:18;21.23;;;7.72;;
51764;SDS011;37835;53.256;6.456;2022-08-18T02:20:45;25.30;;;7.65;;
51764;SDS011;37835;53.256;6.456;2022-08-18T02:23:12;18.60;;;7.93;;
51764;SDS011;37835;53.256;6.456;2022-08-18T02:25:38;17.63;;;6.93;;
51764;SDS011;37835;53.256;6.456;2022-08-18T02:28:05;26.73;;;6.75;;
51764;SDS011;37835;53.256;6.456;2022-08-18T02:30:31;18.50;;;6.50;;
51764;SDS011;37835;53.256;6.456;2022-08-18T02:32:58;21.45;;;6.82;;
51764;SDS011;37835;53.256;6.456;2022-08-18T02:35:25;22.00;;;6.82;;
51764;SDS011;37835;53.256;6.456;2022-08-18T02:37:51;19.63;;;7.40;;
51764;SDS011;37835;53.256;6.456;2022-08-18T02:40:17;20.85;;;7.00;;
51764;SDS011;37835;53.256;6.456;2022-08-18T02:42:44;19.08;;;6.50;;
51764;SDS011;37835;53.256;6.456;2022-08-18T02:45:10;25.65;;;7.03;;
51764;SDS011;37835;53.256;6.456;2022-08-18T02:47:37;21.05;;;6.72;;
51764;SDS011;37835;53.256;6.456;2022-08-18T02:50:03;19.15;;;6.40;;
51764;SDS011;37835;53.256;6.456;2022-08-18T02:52:30;16.98;;;6.63;;
51764;SDS011;37835;53.256;6.456;2022-08-18T02:54:56;14.18;;;6.40;;
51764;SDS011;37835;53.256;6.456;2022-08-18T02:57:25;20.42;;;7.28;;
51764;SDS011;37835;53.256;6.456;2022-08-18T02:59:51;20.80;;;7.18;;
51764;SDS011;37835;53.256;6.456;2022-08-18T03:02:18;19.20;;;7.75;;
51764;SDS011;37835;53.256;6.456;2022-08-18T03:04:44;23.50;;;7.63;;
51764;SDS011;37835;53.256;6.456;2022-08-18T03:07:10;15.52;;;6.75;;
51764;SDS011;37835;53.256;6.456;2022-08-18T03:09:36;20.02;;;7.80;;
51764;SDS011;37835;53.256;6.456;2022-08-18T03:12:02;16.20;;;7.32;;
51764;SDS011;37835;53.256;6.456;2022-08-18T03:14:28;15.93;;;6.97;;
51764;SDS011;37835;53.256;6.456;2022-08-18T03:16:54;14.43;;;7.20;;
51764;SDS011;37835;53.256;6.456;2022-08-18T03:19:20;18.80;;;7.45;;
51764;SDS011;37835;53.256;6.456;2022-08-18T03:24:17;13.65;;;7.13;;
51764;SDS011;37835;53.256;6.456;2022-08-18T03:26:43;23.50;;;7.35;;
51764;SDS011;37835;53.256;6.456;2022-08-18T03:29:09;17.83;;;7.50;;
51764;SDS011;37835;53.256;6.456;2022-08-18T03:31:38;15.70;;;7.18;;
51764;SDS011;37835;53.256;6.456;2022-08-18T03:34:06;18.17;;;7.35;;
51764;SDS011;37835;53.256;6.456;2022-08-18T03:36:32;13.05;;;7.40;;
51764;SDS011;37835;53.256;6.456;2022-08-18T03:39:06;12.52;;;7.60;;
51764;SDS011;37835;53.256;6.456;2022-08-18T03:41:35;16.23;;;7.32;;
51764;SDS011;37835;53.256;6.456;2022-08-18T03:44:03;18.77;;;7.43;;
51764;SDS011;37835;53.256;6.456;2022-08-18T03:46:29;13.02;;;6.65;;
51764;SDS011;37835;53.256;6.456;2022-08-18T03:48:55;17.92;;;6.65;;
51764;SDS011;37835;53.256;6.456;2022-08-18T03:51:23;13.05;;;6.97;;
51764;SDS011;37835;53.256;6.456;2022-08-18T03:53:51;11.50;;;6.85;;
51764;SDS011;37835;53.256;6.456;2022-08-18T03:56:20;11.90;;;6.57;;
51764;SDS011;37835;53.256;6.456;2022-08-18T03:58:49;14.43;;;7.03;;
51764;SDS011;37835;53.256;6.456;2022-08-18T04:01:18;9.90;;;5.75;;
51764;SDS011;37835;53.256;6.456;2022-08-18T04:03:47;16.60;;;6.15;;
51764;SDS011;37835;53.256;6.456;2022-08-18T04:06:15;19.33;;;6.97;;
51764;SDS011;37835;53.256;6.456;2022-08-18T04:08:42;13.05;;;6.38;;
51764;SDS011;37835;53.256;6.456;2022-08-18T04:11:10;18.80;;;6.93;;
51764;SDS011;37835;53.256;6.456;2022-08-18T04:13:37;14.50;;;7.00;;
51764;SDS011;37835;53.256;6.456;2022-08-18T04:16:03;14.15;;;6.93;;
51764;SDS011;37835;53.256;6.456;2022-08-18T04:18:29;12.77;;;7.47;;
51764;SDS011;37835;53.256;6.456;2022-08-18T04:20:56;12.25;;;7.45;;
51764;SDS011;37835;53.256;6.456;2022-08-18T04:23:27;12.88;;;7.45;;
51764;SDS011;37835;53.256;6.456;2022-08-18T04:25:54;16.35;;;8.27;;
51764;SDS011;37835;53.256;6.456;2022-08-18T04:28:21;17.00;;;7.07;;
51764;SDS011;37835;53.256;6.456;2022-08-18T04:30:47;14.73;;;7.78;;
51764;SDS011;37835;53.256;6.456;2022-08-18T04:33:13;12.48;;;8.25;;
51764;SDS011;37835;53.256;6.456;2022-08-18T04:35:38;14.65;;;8.88;;
51764;SDS011;37835;53.256;6.456;2022-08-18T04:38:04;10.73;;;8.23;;
51764;SDS011;37835;53.256;6.456;2022-08-18T04:40:31;16.33;;;7.25;;
51764;SDS011;37835;53.256;6.456;2022-08-18T04:42:58;20.70;;;6.38;;
51764;SDS011;37835;53.256;6.456;2022-08-18T04:45:25;14.38;;;5.97;;
51764;SDS011;37835;53.256;6.456;2022-08-18T04:47:51;13.98;;;6.25;;
51764;SDS011;37835;53.256;6.456;2022-08-18T04:50:17;13.10;;;5.15;;
51764;SDS011;37835;53.256;6.456;2022-08-18T04:52:43;13.98;;;5.03;;
51764;SDS011;37835;53.256;6.456;2022-08-18T04:55:27;14.75;;;5.38;;
51764;SDS011;37835;53.256;6.456;2022-08-18T04:57:54;9.75;;;5.35;;
51764;SDS011;37835;53.256;6.456;2022-08-18T05:00:20;13.18;;;5.30;;
51764;SDS011;37835;53.256;6.456;2022-08-18T05:02:46;10.90;;;4.97;;
51764;SDS011;37835;53.256;6.456;2022-08-18T05:05:12;14.23;;;5.65;;
51764;SDS011;37835;53.256;6.456;2022-08-18T05:07:42;14.10;;;5.75;;
51764;SDS011;37835;53.256;6.456;2022-08-18T05:10:09;13.38;;;5.47;;
51764;SDS011;37835;53.256;6.456;2022-08-18T05:12:36;11.13;;;5.20;;
51764;SDS011;37835;53.256;6.456;2022-08-18T05:15:06;10.23;;;5.57;;
51764;SDS011;37835;53.256;6.456;2022-08-18T05:17:32;15.13;;;6.10;;
51764;SDS011;37835;53.256;6.456;2022-08-18T05:20:03;15.20;;;6.00;;
51764;SDS011;37835;53.256;6.456;2022-08-18T05:22:39;12.45;;;5.40;;
51764;SDS011;37835;53.256;6.456;2022-08-18T05:25:07;14.02;;;5.93;;
51764;SDS011;37835;53.256;6.456;2022-08-18T05:27:35;11.15;;;5.40;;
51764;SDS011;37835;53.256;6.456;2022-08-18T05:30:03;13.73;;;5.57;;
51764;SDS011;37835;53.256;6.456;2022-08-18T05:32:33;13.10;;;5.47;;
51764;SDS011;37835;53.256;6.456;2022-08-18T05:35:08;13.50;;;5.57;;
51764;SDS011;37835;53.256;6.456;2022-08-18T05:37:46;23.58;;;6.07;;
51764;SDS011;37835;53.256;6.456;2022-08-18T05:40:14;15.32;;;6.20;;
51764;SDS011;37835;53.256;6.456;2022-08-18T05:42:40;13.20;;;5.72;;
51764;SDS011;37835;53.256;6.456;2022-08-18T05:45:08;18.63;;;6.95;;
51764;SDS011;37835;53.256;6.456;2022-08-18T05:47:40;11.63;;;5.85;;
51764;SDS011;37835;53.256;6.456;2022-08-18T05:50:08;9.07;;;5.93;;
51764;SDS011;37835;53.256;6.456;2022-08-18T05:52:51;10.43;;;5.65;;
51764;SDS011;37835;53.256;6.456;2022-08-18T05:55:38;13.85;;;5.47;;
51764;SDS011;37835;53.256;6.456;2022-08-18T05:58:44;8.73;;;4.95;;
51764;SDS011;37835;53.256;6.456;2022-08-18T06:01:21;8.48;;;4.70;;
51764;SDS011;37835;53.256;6.456;2022-08-18T06:04:39;12.05;;;4.70;;
51764;SDS011;37835;53.256;6.456;2022-08-18T06:07:01;10.65;;;4.05;;
51764;SDS011;37835;53.256;6.456;2022-08-18T06:09:33;14.65;;;4.95;;
51764;SDS011;37835;53.256;6.456;2022-08-18T06:12:31;9.10;;;4.25;;
51764;SDS011;37835;53.256;6.456;2022-08-18T06:15:47;11.55;;;4.97;;
51764;SDS011;37835;53.256;6.456;2022-08-18T06:43:01;6.25;;;2.45;;
51764;SDS011;37835;53.256;6.456;2022-08-18T06:45:35;4.15;;;1.75;;
51764;SDS011;37835;53.256;6.456;2022-08-18T06:50:33;9.25;;;2.60;;
51764;SDS011;37835;53.256;6.456;2022-08-18T06:53:06;8.13;;;2.42;;
51764;SDS011;37835;53.256;6.456;2022-08-18T06:55:34;13.00;;;2.90;;
51764;SDS011;37835;53.256;6.456;2022-08-18T06:58:04;12.48;;;2.95;;
51764;SDS011;37835;53.256;6.456;2022-08-18T07:03:15;10.07;;;2.70;;
51764;SDS011;37835;53.256;6.456;2022-08-18T07:05:58;16.83;;;2.83;;
51764;SDS011;37835;53.256;6.456;2022-08-18T07:08:41;10.77;;;2.97;;
51764;SDS011;37835;53.256;6.456;2022-08-18T07:16:46;8.45;;;2.70;;
51764;SDS011;37835;53.256;6.456;2022-08-18T07:19:13;7.60;;;2.10;;
51764;SDS011;37835;53.256;6.456;2022-08-18T07:21:41;9.32;;;2.20;;
51764;SDS011;37835;53.256;6.456;2022-08-18T07:26:57;7.30;;;2.05;;
51764;SDS011;37835;53.256;6.456;2022-08-18T07:33:15;5.10;;;1.60;;
51764;SDS011;37835;53.256;6.456;2022-08-18T07:35:21;5.18;;;2.22;;
51764;SDS011;37835;53.256;6.456;2022-08-18T07:37:56;7.95;;;2.70;;
51764;SDS011;37835;53.256;6.456;2022-08-18T07:40:31;6.63;;;2.28;;
51764;SDS011;37835;53.256;6.456;2022-08-18T07:43:04;6.57;;;2.20;;
51764;SDS011;37835;53.256;6.456;2022-08-18T07:45:44;7.88;;;2.13;;
51764;SDS011;37835;53.256;6.456;2022-08-18T07:48:29;5.78;;;2.13;;
51764;SDS011;37835;53.256;6.456;2022-08-18T07:56:10;6.20;;;1.83;;
51764;SDS011;37835;53.256;6.456;2022-08-18T07:58:55;7.63;;;2.25;;
51764;SDS011;37835;53.256;6.456;2022-08-18T08:04:10;5.75;;;2.08;;
51764;SDS011;37835;53.256;6.456;2022-08-18T08:06:53;7.20;;;2.22;;
51764;SDS011;37835;53.256;6.456;2022-08-18T08:09:35;2.47;;;1.50;;
51764;SDS011;37835;53.256;6.456;2022-08-18T08:26:01;3.10;;;1.20;;
51764;SDS011;37835;53.256;6.456;2022-08-18T08:34:27;3.65;;;1.33;;
51764;SDS011;37835;53.256;6.456;2022-08-18T08:37:04;3.38;;;1.40;;
51764;SDS011;37835;53.256;6.456;2022-08-18T08:39:42;2.58;;;1.17;;
51764;SDS011;37835;53.256;6.456;2022-08-18T08:45:46;3.10;;;1.70;;
51764;SDS011;37835;53.256;6.456;2022-08-18T08:48:27;4.00;;;1.55;;
51764;SDS011;37835;53.256;6.456;2022-08-18T08:56:39;1.85;;;1.60;;
51764;SDS011;37835;53.256;6.456;2022-08-18T08:59:16;5.53;;;1.52;;
51764;SDS011;37835;53.256;6.456;2022-08-18T09:21:28;4.13;;;1.55;;
51764;SDS011;37835;53.256;6.456;2022-08-18T09:24:07;3.72;;;1.67;;
51764;SDS011;37835;53.256;6.456;2022-08-18T09:34:57;4.32;;;1.50;;
51764;SDS011;37835;53.256;6.456;2022-08-18T09:40:35;3.40;;;1.58;;
51764;SDS011;37835;53.256;6.456;2022-08-18T09:43:34;3.45;;;1.58;;
51764;SDS011;37835;53.256;6.456;2022-08-18T09:46:03;3.75;;;1.52;;
51764;SDS011;37835;53.256;6.456;2022-08-18T09:48:38;3.35;;;1.55;;
51764;SDS011;37835;53.256;6.456;2022-08-18T09:59:12;2.08;;;1.50;;
51764;SDS011;37835;53.256;6.456;2022-08-18T10:01:58;4.72;;;1.30;;
51764;SDS011;37835;53.256;6.456;2022-08-18T10:07:12;5.45;;;1.60;;
51764;SDS011;37835;53.256;6.456;2022-08-18T10:15:21;3.40;;;1.40;;
51764;SDS011;37835;53.256;6.456;2022-08-18T10:21:11;2.70;;;1.40;;
51764;SDS011;37835;53.256;6.456;2022-08-18T10:31:20;3.60;;;1.58;;
51764;SDS011;37835;53.256;6.456;2022-08-18T10:39:22;5.07;;;1.55;;
51764;SDS011;37835;53.256;6.456;2022-08-18T10:44:30;4.07;;;1.70;;
51764;SDS011;37835;53.256;6.456;2022-08-18T10:49:28;9.23;;;2.25;;
51764;SDS011;37835;53.256;6.456;2022-08-18T10:57:18;2.65;;;1.50;;
51764;SDS011;37835;53.256;6.456;2022-08-18T11:00:06;2.80;;;1.20;;
51764;SDS011;37835;53.256;6.456;2022-08-18T11:05:21;5.65;;;1.98;;
51764;SDS011;37835;53.256;6.456;2022-08-18T11:07:51;8.27;;;1.67;;
51764;SDS011;37835;53.256;6.456;2022-08-18T11:10:33;4.00;;;1.75;;
51764;SDS011;37835;53.256;6.456;2022-08-18T11:13:30;8.50;;;1.67;;
51764;SDS011;37835;53.256;6.456;2022-08-18T11:18:43;5.10;;;1.55;;
51764;SDS011;37835;53.256;6.456;2022-08-18T11:26:40;3.47;;;1.38;;
51764;SDS011;37835;53.256;6.456;2022-08-18T11:29:20;7.65;;;2.08;;
51764;SDS011;37835;53.256;6.456;2022-08-18T11:31:48;6.07;;;1.75;;
51764;SDS011;37835;53.256;6.456;2022-08-18T11:34:17;6.68;;;1.70;;
51764;SDS011;37835;53.256;6.456;2022-08-18T11:36:56;9.07;;;1.75;;
51764;SDS011;37835;53.256;6.456;2022-08-18T11:39:26;3.47;;;1.40;;
51764;SDS011;37835;53.256;6.456;2022-08-18T11:41:53;2.63;;;1.23;;
51764;SDS011;37835;53.256;6.456;2022-08-18T11:44:21;2.33;;;1.30;;
51764;SDS011;37835;53.256;6.456;2022-08-18T11:46:52;4.45;;;1.77;;
51764;SDS011;37835;53.256;6.456;2022-08-18T11:49:31;3.08;;;1.50;;
51764;SDS011;37835;53.256;6.456;2022-08-18T11:54:38;3.95;;;1.40;;
51764;SDS011;37835;53.256;6.456;2022-08-18T11:59:53;3.67;;;1.75;;
51764;SDS011;37835;53.256;6.456;2022-08-18T12:02:20;3.72;;;1.60;;
51764;SDS011;37835;53.256;6.456;2022-08-18T12:04:53;3.15;;;1.27;;
51764;SDS011;37835;53.256;6.456;2022-08-18T12:07:26;2.75;;;1.30;;
51764;SDS011;37835;53.256;6.456;2022-08-18T12:10:18;4.53;;;1.40;;
51764;SDS011;37835;53.256;6.456;2022-08-18T12:17:44;5.15;;;1.30;;
51764;SDS011;37835;53.256;6.456;2022-08-18T12:20:11;4.40;;;1.27;;
51764;SDS011;37835;53.256;6.456;2022-08-18T12:22:37;4.00;;;1.80;;
51764;SDS011;37835;53.256;6.456;2022-08-18T12:25:06;3.22;;;1.23;;
51764;SDS011;37835;53.256;6.456;2022-08-18T12:27:34;4.30;;;1.50;;
51764;SDS011;37835;53.256;6.456;2022-08-18T12:30:00;1.45;;;1.20;;
51764;SDS011;37835;53.256;6.456;2022-08-18T12:32:27;2.00;;;1.30;;
51764;SDS011;37835;53.256;6.456;2022-08-18T12:34:54;4.13;;;1.58;;
51764;SDS011;37835;53.256;6.456;2022-08-18T12:37:21;2.03;;;1.50;;
51764;SDS011;37835;53.256;6.456;2022-08-18T12:39:49;4.07;;;1.30;;
51764;SDS011;37835;53.256;6.456;2022-08-18T12:42:15;2.85;;;1.50;;
51764;SDS011;37835;53.256;6.456;2022-08-18T12:44:41;2.10;;;1.25;;
51764;SDS011;37835;53.256;6.456;2022-08-18T12:47:11;3.60;;;1.30;;
51764;SDS011;37835;53.256;6.456;2022-08-18T12:49:39;3.28;;;1.30;;
51764;SDS011;37835;53.256;6.456;2022-08-18T12:52:05;1.65;;;1.08;;
51764;SDS011;37835;53.256;6.456;2022-08-18T12:54:31;4.15;;;1.48;;
51764;SDS011;37835;53.256;6.456;2022-08-18T12:56:59;4.05;;;1.40;;
51764;SDS011;37835;53.256;6.456;2022-08-18T12:59:25;1.33;;;1.15;;
51764;SDS011;37835;53.256;6.456;2022-08-18T13:01:51;3.28;;;1.27;;
51764;SDS011;37835;53.256;6.456;2022-08-18T13:04:17;4.18;;;1.40;;
51764;SDS011;37835;53.256;6.456;2022-08-18T13:06:48;3.15;;;1.20;;
51764;SDS011;37835;53.256;6.456;2022-08-18T13:09:17;1.67;;;1.20;;
51764;SDS011;37835;53.256;6.456;2022-08-18T13:11:43;2.42;;;1.40;;
51764;SDS011;37835;53.256;6.456;2022-08-18T13:14:09;1.33;;;1.23;;
51764;SDS011;37835;53.256;6.456;2022-08-18T13:16:35;2.63;;;1.30;;
51764;SDS011;37835;53.256;6.456;2022-08-18T13:19:03;2.25;;;1.02;;
51764;SDS011;37835;53.256;6.456;2022-08-18T13:21:29;4.65;;;1.60;;
51764;SDS011;37835;53.256;6.456;2022-08-18T13:23:55;5.05;;;1.50;;
51764;SDS011;37835;53.256;6.456;2022-08-18T13:26:26;2.58;;;1.35;;
51764;SDS011;37835;53.256;6.456;2022-08-18T13:28:54;2.25;;;1.55;;
51764;SDS011;37835;53.256;6.456;2022-08-18T13:31:20;2.20;;;1.30;;
51764;SDS011;37835;53.256;6.456;2022-08-18T13:33:45;5.18;;;1.20;;
51764;SDS011;37835;53.256;6.456;2022-08-18T13:36:11;3.47;;;1.45;;
51764;SDS011;37835;53.256;6.456;2022-08-18T13:38:37;1.90;;;1.35;;
51764;SDS011;37835;53.256;6.456;2022-08-18T13:41:04;2.85;;;1.13;;
51764;SDS011;37835;53.256;6.456;2022-08-18T13:43:31;3.65;;;1.52;;
51764;SDS011;37835;53.256;6.456;2022-08-18T13:46:00;3.58;;;1.58;;
51764;SDS011;37835;53.256;6.456;2022-08-18T13:48:26;3.33;;;1.40;;
51764;SDS011;37835;53.256;6.456;2022-08-18T13:50:54;9.18;;;3.03;;
51764;SDS011;37835;53.256;6.456;2022-08-18T13:53:22;21.42;;;7.50;;
51764;SDS011;37835;53.256;6.456;2022-08-18T13:55:49;6.38;;;2.67;;
51764;SDS011;37835;53.256;6.456;2022-08-18T13:58:15;7.95;;;2.08;;
51764;SDS011;37835;53.256;6.456;2022-08-18T14:00:41;4.70;;;1.52;;
51764;SDS011;37835;53.256;6.456;2022-08-18T14:03:07;2.45;;;1.80;;
51764;SDS011;37835;53.256;6.456;2022-08-18T14:05:33;5.47;;;3.08;;
51764;SDS011;37835;53.256;6.456;2022-08-18T14:07:59;2.88;;;1.85;;
51764;SDS011;37835;53.256;6.456;2022-08-18T14:10:26;3.15;;;1.60;;
51764;SDS011;37835;53.256;6.456;2022-08-18T14:12:56;2.40;;;1.65;;
51764;SDS011;37835;53.256;6.456;2022-08-18T14:17:50;2.50;;;1.45;;
51764;SDS011;37835;53.256;6.456;2022-08-18T14:20:16;1.60;;;1.30;;
51764;SDS011;37835;53.256;6.456;2022-08-18T14:23:06;3.45;;;1.60;;
51764;SDS011;37835;53.256;6.456;2022-08-18T14:25:51;1.60;;;1.38;;
51764;SDS011;37835;53.256;6.456;2022-08-18T14:28:35;2.75;;;1.70;;
51764;SDS011;37835;53.256;6.456;2022-08-18T14:31:01;4.22;;;1.20;;
51764;SDS011;37835;53.256;6.456;2022-08-18T14:33:28;1.73;;;1.30;;
51764;SDS011;37835;53.256;6.456;2022-08-18T14:35:56;1.50;;;1.35;;
51764;SDS011;37835;53.256;6.456;2022-08-18T14:38:22;2.67;;;1.30;;
51764;SDS011;37835;53.256;6.456;2022-08-18T14:40:48;2.28;;;1.17;;
51764;SDS011;37835;53.256;6.456;2022-08-18T14:43:15;1.75;;;1.02;;
51764;SDS011;37835;53.256;6.456;2022-08-18T14:45:43;2.30;;;1.27;;
51764;SDS011;37835;53.256;6.456;2022-08-18T14:48:14;3.95;;;1.13;;
51764;SDS011;37835;53.256;6.456;2022-08-18T14:50:47;2.88;;;1.30;;
51764;SDS011;37835;53.256;6.456;2022-08-18T14:53:14;3.67;;;1.40;;
51764;SDS011;37835;53.256;6.456;2022-08-18T14:55:41;2.45;;;1.30;;
51764;SDS011;37835;53.256;6.456;2022-08-18T14:58:08;2.78;;;1.45;;
51764;SDS011;37835;53.256;6.456;2022-08-18T15:00:34;1.85;;;1.35;;
51764;SDS011;37835;53.256;6.456;2022-08-18T15:02:59;4.35;;;1.40;;
51764;SDS011;37835;53.256;6.456;2022-08-18T15:05:26;2.25;;;1.08;;
51764;SDS011;37835;53.256;6.456;2022-08-18T15:07:56;5.63;;;1.50;;
51764;SDS011;37835;53.256;6.456;2022-08-18T15:10:22;3.55;;;1.70;;
51764;SDS011;37835;53.256;6.456;2022-08-18T15:12:48;3.33;;;1.50;;
51764;SDS011;37835;53.256;6.456;2022-08-18T15:15:15;1.98;;;1.27;;
51764;SDS011;37835;53.256;6.456;2022-08-18T15:17:40;2.70;;;1.20;;
51764;SDS011;37835;53.256;6.456;2022-08-18T15:20:07;1.88;;;1.30;;
51764;SDS011;37835;53.256;6.456;2022-08-18T15:22:38;3.55;;;1.67;;
51764;SDS011;37835;53.256;6.456;2022-08-18T15:25:24;5.15;;;1.10;;
51764;SDS011;37835;53.256;6.456;2022-08-18T15:28:05;2.28;;;1.25;;
51764;SDS011;37835;53.256;6.456;2022-08-18T15:30:32;2.22;;;1.30;;
51764;SDS011;37835;53.256;6.456;2022-08-18T15:32:58;2.53;;;1.50;;
51764;SDS011;37835;53.256;6.456;2022-08-18T15:35:24;5.45;;;1.38;;
51764;SDS011;37835;53.256;6.456;2022-08-18T15:37:50;2.97;;;1.45;;
51764;SDS011;37835;53.256;6.456;2022-08-18T15:40:20;4.07;;;1.65;;
51764;SDS011;37835;53.256;6.456;2022-08-18T15:42:49;1.95;;;1.52;;
51764;SDS011;37835;53.256;6.456;2022-08-18T15:45:17;2.15;;;1.90;;
51764;SDS011;37835;53.256;6.456;2022-08-18T15:47:49;3.92;;;1.73;;
51764;SDS011;37835;53.256;6.456;2022-08-18T15:50:16;3.42;;;1.50;;
51764;SDS011;37835;53.256;6.456;2022-08-18T15:52:49;2.65;;;1.38;;
51764;SDS011;37835;53.256;6.456;2022-08-18T15:55:17;2.97;;;1.65;;
51764;SDS011;37835;53.256;6.456;2022-08-18T15:57:44;2.60;;;1.45;;
51764;SDS011;37835;53.256;6.456;2022-08-18T16:00:10;2.00;;;1.25;;
51764;SDS011;37835;53.256;6.456;2022-08-18T16:02:40;1.80;;;1.30;;
51764;SDS011;37835;53.256;6.456;2022-08-18T16:05:06;2.15;;;1.20;;
51764;SDS011;37835;53.256;6.456;2022-08-18T16:07:32;3.15;;;1.45;;
51764;SDS011;37835;53.256;6.456;2022-08-18T16:09:59;5.03;;;1.90;;
51764;SDS011;37835;53.256;6.456;2022-08-18T16:12:25;1.65;;;1.45;;
51764;SDS011;37835;53.256;6.456;2022-08-18T16:14:51;1.60;;;1.50;;
51764;SDS011;37835;53.256;6.456;2022-08-18T16:17:17;2.50;;;1.20;;
51764;SDS011;37835;53.256;6.456;2022-08-18T16:19:45;3.70;;;1.30;;
51764;SDS011;37835;53.256;6.456;2022-08-18T16:22:11;3.42;;;1.35;;
51764;SDS011;37835;53.256;6.456;2022-08-18T16:24:37;2.70;;;1.23;;
51764;SDS011;37835;53.256;6.456;2022-08-18T16:27:03;3.15;;;1.38;;
51764;SDS011;37835;53.256;6.456;2022-08-18T16:29:30;2.80;;;1.00;;
51764;SDS011;37835;53.256;6.456;2022-08-18T16:31:56;1.40;;;1.13;;
51764;SDS011;37835;53.256;6.456;2022-08-18T16:34:22;4.72;;;1.60;;
51764;SDS011;37835;53.256;6.456;2022-08-18T16:36:48;1.85;;;1.23;;
51764;SDS011;37835;53.256;6.456;2022-08-18T16:39:13;5.60;;;1.42;;
51764;SDS011;37835;53.256;6.456;2022-08-18T16:41:39;2.95;;;1.30;;
51764;SDS011;37835;53.256;6.456;2022-08-18T16:44:04;3.45;;;1.80;;
51764;SDS011;37835;53.256;6.456;2022-08-18T16:46:30;2.88;;;1.50;;
51764;SDS011;37835;53.256;6.456;2022-08-18T16:48:56;6.28;;;1.80;;
51764;SDS011;37835;53.256;6.456;2022-08-18T16:51:23;4.45;;;1.52;;
51764;SDS011;37835;53.256;6.456;2022-08-18T16:53:51;5.07;;;1.60;;
51764;SDS011;37835;53.256;6.456;2022-08-18T16:56:21;3.10;;;1.95;;
51764;SDS011;37835;53.256;6.456;2022-08-18T16:58:49;4.53;;;1.23;;
51764;SDS011;37835;53.256;6.456;2022-08-18T17:01:33;4.07;;;1.60;;
51764;SDS011;37835;53.256;6.456;2022-08-18T17:04:19;3.20;;;1.60;;
51764;SDS011;37835;53.256;6.456;2022-08-18T17:06:46;2.38;;;1.30;;
51764;SDS011;37835;53.256;6.456;2022-08-18T17:09:13;2.53;;;1.40;;
51764;SDS011;37835;53.256;6.456;2022-08-18T17:11:39;1.52;;;1.35;;
51764;SDS011;37835;53.256;6.456;2022-08-18T17:14:05;2.42;;;1.30;;
51764;SDS011;37835;53.256;6.456;2022-08-18T17:16:33;3.53;;;1.33;;
51764;SDS011;37835;53.256;6.456;2022-08-18T17:19:00;4.68;;;1.77;;
51764;SDS011;37835;53.256;6.456;2022-08-18T17:21:27;3.05;;;1.55;;
51764;SDS011;37835;53.256;6.456;2022-08-18T17:23:55;4.63;;;1.35;;
51764;SDS011;37835;53.256;6.456;2022-08-18T17:29:27;3.20;;;1.35;;
51764;SDS011;37835;53.256;6.456;2022-08-18T17:31:59;5.97;;;1.40;;
51764;SDS011;37835;53.256;6.456;2022-08-18T17:34:32;2.53;;;1.60;;
51764;SDS011;37835;53.256;6.456;2022-08-18T17:37:03;3.85;;;1.60;;
51764;SDS011;37835;53.256;6.456;2022-08-18T17:39:35;2.50;;;1.27;;
51764;SDS011;37835;53.256;6.456;2022-08-18T17:42:05;3.28;;;1.65;;
51764;SDS011;37835;53.256;6.456;2022-08-18T17:44:56;1.70;;;1.13;;
51764;SDS011;37835;53.256;6.456;2022-08-18T17:47:30;2.15;;;1.38;;
51764;SDS011;37835;53.256;6.456;2022-08-18T17:50:01;2.90;;;1.30;;
51764;SDS011;37835;53.256;6.456;2022-08-18T17:52:51;3.75;;;1.75;;
51764;SDS011;37835;53.256;6.456;2022-08-18T17:55:30;2.40;;;1.63;;
51764;SDS011;37835;53.256;6.456;2022-08-18T17:58:05;3.80;;;1.60;;
51764;SDS011;37835;53.256;6.456;2022-08-18T18:00:38;2.97;;;1.80;;
51764;SDS011;37835;53.256;6.456;2022-08-18T18:03:04;2.83;;;2.33;;
51764;SDS011;37835;53.256;6.456;2022-08-18T18:05:40;3.25;;;2.00;;
51764;SDS011;37835;53.256;6.456;2022-08-18T18:08:08;3.13;;;2.00;;
51764;SDS011;37835;53.256;6.456;2022-08-18T18:10:42;4.47;;;1.92;;